Time;durP1;ratioP1;P1;durP2;ratioP2;P2;SDS_P1;SDS_P2;PMS_P1;PMS_P2;Temp;Humidity;BMP_temperature;BMP_pressure;BME280_temperature;BME280_humidity;BME280_pressure;Samples;Min_cycle;Max_cycle;Signal;HPM_P1;HPM_P2
2022/12/17 13:06:40;;;;;;;25.95;18.83;;;;;;;11.35;71.90;93866.09;4987751;28;20045;-75
2022/12/17 13:09:14;;;;;;;15.68;10.13;;;;;;;11.07;73.49;93873.66;4993640;28;20034;-76
2022/12/17 13:11:53;;;;;;;12.60;8.77;;;;;;;11.10;72.49;93854.41;4994771;28;20069;-76
2022/12/17 13:14:25;;;;;;;11.10;7.50;;;;;;;11.45;72.18;93868.44;5012754;28;20050;-76
2022/12/17 13:17:04;;;;;;;12.07;8.18;;;;;;;11.65;71.56;93864.34;4993054;28;20080;-76
2022/12/17 13:19:32;;;;;;;12.48;7.80;;;;;;;11.55;72.11;93870.81;4998469;28;20513;-76
2022/12/17 13:22:13;;;;;;;9.07;6.35;;;;;;;11.85;71.38;93884.97;4999343;28;20053;-76
2022/12/17 13:24:39;;;;;;;9.60;6.78;;;;;;;11.87;70.88;93888.13;5000003;28;20366;-76
2022/12/17 13:27:30;;;;;;;12.38;7.80;;;;;;;11.86;70.66;93889.22;4995157;28;20629;-73
2022/12/17 13:29:56;;;;;;;11.10;8.15;;;;;;;11.86;70.50;93888.44;4992649;28;20041;-73
2022/12/17 13:32:32;;;;;;;9.55;6.95;;;;;;;11.15;73.44;93872.88;4988526;28;20204;-74
2022/12/17 13:35:21;;;;;;;9.77;6.35;;;;;;;11.65;71.91;93880.34;4991543;28;20313;-74
2022/12/17 13:38:05;;;;;;;10.02;6.40;;;;;;;11.64;71.81;93884.09;5004557;28;20137;-74
2022/12/17 13:40:42;;;;;;;11.77;7.97;;;;;;;11.53;72.76;93890.88;4989743;28;20042;-75
2022/12/17 13:43:20;;;;;;;12.82;7.68;;;;;;;11.36;73.28;93894.31;4993668;28;20050;-75
2022/12/17 13:45:45;;;;;;;12.38;8.43;;;;;;;11.29;73.56;93901.22;4994555;28;20035;-75
2022/12/17 13:48:21;;;;;;;19.50;10.10;;;;;;;10.48;77.44;93901.00;4996283;28;20037;-77
2022/12/17 13:51:19;;;;;;;11.63;9.75;;;;;;;10.59;76.54;93897.75;4997405;28;20111;-76
2022/12/17 13:53:59;;;;;;;16.77;11.00;;;;;;;10.40;77.28;93894.56;4995894;28;20061;-76
2022/12/17 13:56:31;;;;;;;15.70;10.60;;;;;;;10.65;76.50;93895.72;4996374;28;20617;-75
2022/12/17 13:59:01;;;;;;;17.30;11.55;;;;;;;10.84;75.17;93909.50;4994005;28;20041;-76
2022/12/17 14:01:27;;;;;;;17.58;10.70;;;;;;;11.05;74.81;93904.38;4994522;28;20466;-76
2022/12/17 14:03:55;;;;;;;18.98;12.00;;;;;;;11.25;73.54;93886.97;4993729;28;20045;-75
2022/12/17 14:06:23;;;;;;;17.30;11.65;;;;;;;10.87;75.24;93898.22;4991543;28;20129;-75
2022/12/17 14:08:51;;;;;;;51.67;32.42;;;;;;;11.21;73.77;93915.31;4992568;28;20032;-75
2022/12/17 14:14:02;;;;;;;21.53;14.03;;;;;;;10.78;74.91;93913.41;4988191;28;20515;-75
2022/12/17 14:16:28;;;;;;;22.05;15.55;;;;;;;10.89;73.73;93912.03;4991975;28;20544;-75
2022/12/17 14:18:57;;;;;;;16.80;10.88;;;;;;;10.13;77.05;93922.13;4973456;28;20073;-75
2022/12/17 14:21:24;;;;;;;11.65;10.38;;;;;;;9.49;80.62;93922.75;4986735;28;20036;-76
2022/12/17 14:23:51;;;;;;;14.07;10.35;;;;;;;10.09;77.97;93926.50;4985227;28;20029;-75
2022/12/17 14:26:17;;;;;;;14.77;10.52;;;;;;;10.52;75.94;93939.94;4988751;28;20095;-75
2022/12/17 14:28:51;;;;;;;13.75;10.05;;;;;;;10.73;74.50;93950.81;4990165;28;20030;-74
2022/12/17 14:31:29;;;;;;;14.25;10.50;;;;;;;10.86;73.91;93954.41;4988877;28;20112;-75
2022/12/17 14:34:06;;;;;;;14.70;9.82;;;;;;;10.84;73.12;93944.09;4992516;28;20080;-75
2022/12/17 14:36:37;;;;;;;14.13;8.40;;;;;;;10.92;73.38;93948.63;4993891;28;20053;-75
2022/12/17 14:39:15;;;;;;;15.35;10.15;;;;;;;10.83;73.06;93926.56;4994128;28;20022;-76
2022/12/17 14:44:28;;;;;;;20.65;13.27;;;;;;;10.98;72.22;93933.31;4989231;28;20099;-75
2022/12/17 14:47:17;;;;;;;16.20;11.45;;;;;;;10.96;71.68;93938.16;4993041;28;20045;-75
2022/12/17 14:49:53;;;;;;;15.77;9.90;;;;;;;11.05;71.26;93950.38;4993306;28;20030;-75
2022/12/17 14:52:42;;;;;;;17.58;10.65;;;;;;;10.84;71.35;93952.09;4991382;28;20424;-74
2022/12/17 14:55:23;;;;;;;15.60;11.35;;;;;;;10.66;72.51;93956.56;4995297;28;20508;-75
2022/12/17 14:58:05;;;;;;;15.00;12.05;;;;;;;11.03;70.73;93973.06;4990445;28;20053;-74
2022/12/17 15:00:31;;;;;;;24.73;15.95;;;;;;;10.60;71.82;93973.00;4995371;28;20046;-74
2022/12/17 15:02:56;;;;;;;20.92;14.60;;;;;;;9.99;74.51;93957.84;4993637;28;20033;-75
2022/12/17 15:05:22;;;;;;;18.30;12.63;;;;;;;10.24;72.83;93952.66;4996253;28;20421;-74
2022/12/17 15:07:47;;;;;;;54.13;34.90;;;;;;;10.38;71.42;93949.13;4991258;28;20463;-74
2022/12/17 15:10:18;;;;;;;14.52;9.77;;;;;;;10.59;71.34;93972.22;4993371;28;20480;-75
2022/12/17 15:12:43;;;;;;;13.07;8.85;;;;;;;10.52;70.69;93971.06;4994774;28;20041;-75
2022/12/17 15:15:15;;;;;;;24.63;15.23;;;;;;;10.42;71.20;93981.97;4997910;28;20111;-75
2022/12/17 15:17:41;;;;;;;14.23;9.23;;;;;;;10.36;71.12;93983.22;4988003;28;20384;-75
2022/12/17 15:20:15;;;;;;;9.55;7.65;;;;;;;10.27;71.55;93969.84;5006566;28;20123;-73
2022/12/17 15:22:41;;;;;;;10.20;7.97;;;;;;;10.46;70.38;93993.59;4991289;28;20045;-74
2022/12/17 15:25:11;;;;;;;8.57;6.40;;;;;;;10.48;70.19;93988.75;4989813;28;20049;-73
2022/12/17 15:27:36;;;;;;;27.13;19.30;;;;;;;10.01;72.38;93977.72;4985230;28;20050;-73
2022/12/17 15:30:02;;;;;;;8.32;7.40;;;;;;;10.21;70.79;93977.22;4982184;28;20034;-72
2022/12/17 15:32:28;;;;;;;7.05;6.18;;;;;;;10.17;70.51;93992.16;4978828;28;20050;-74
2022/12/17 15:34:53;;;;;;;6.82;5.65;;;;;;;10.10;70.66;93986.53;4993739;28;20045;-74
2022/12/17 15:37:19;;;;;;;8.10;5.75;;;;;;;10.13;70.32;93995.75;4989582;28;20138;-70
2022/12/17 15:39:44;;;;;;;15.05;10.68;;;;;;;10.10;70.08;93991.84;5006735;28;20042;-75
2022/12/17 15:44:53;;;;;;;15.70;12.63;;;;;;;10.32;68.82;94004.28;4992815;28;20037;-74
2022/12/17 15:47:19;;;;;;;24.95;16.80;;;;;;;10.23;69.21;94001.59;4990064;28;20412;-75
2022/12/17 15:49:44;;;;;;;105.25;72.47;;;;;;;10.33;68.97;94011.16;4988820;28;20034;-75
2022/12/17 15:52:13;;;;;;;23.25;13.75;;;;;;;10.18;69.63;93996.41;4991719;28;20679;-72
2022/12/17 15:54:42;;;;;;;21.20;15.05;;;;;;;10.17;69.77;94008.13;4991256;28;20571;-72
2022/12/17 15:57:07;;;;;;;8.55;5.00;;;;;;;10.18;69.68;94009.69;4992711;28;20104;-76
2022/12/17 15:59:33;;;;;;;8.23;6.32;;;;;;;10.16;70.03;94009.22;4989822;28;20596;-74
2022/12/17 16:01:58;;;;;;;9.48;7.45;;;;;;;10.26;69.25;94016.94;4990867;28;20400;-74
2022/12/17 16:04:24;;;;;;;8.77;6.35;;;;;;;10.06;70.00;94012.16;4986667;28;20042;-75
2022/12/17 16:06:49;;;;;;;11.10;7.35;;;;;;;9.84;70.79;94001.53;4991983;28;20050;-75
2022/12/17 16:09:14;;;;;;;9.10;5.13;;;;;;;10.03;70.28;94025.25;4987602;28;20018;-74
2022/12/17 16:11:40;;;;;;;8.75;6.65;;;;;;;9.95;70.79;94015.34;4989973;28;20041;-72
2022/12/17 16:14:05;;;;;;;15.63;12.02;;;;;;;9.98;70.30;94026.16;4987679;28;20099;-71
2022/12/17 16:16:31;;;;;;;7.68;6.22;;;;;;;9.99;70.28;94032.25;4991214;28;20056;-75
2022/12/17 16:18:56;;;;;;;10.32;6.88;;;;;;;9.96;69.88;94023.03;4992299;28;20038;-76
2022/12/17 16:21:21;;;;;;;15.70;9.27;;;;;;;9.97;69.79;94043.19;4987538;28;20061;-77
2022/12/17 16:23:47;;;;;;;27.83;18.30;;;;;;;10.00;69.49;94050.56;4994000;28;20026;-76
2022/12/17 16:26:12;;;;;;;33.50;22.42;;;;;;;10.04;69.68;94042.75;4987537;28;20065;-77
2022/12/17 16:28:38;;;;;;;40.40;26.15;;;;;;;10.04;69.86;94045.41;4986336;28;20061;-78
2022/12/17 16:31:11;;;;;;;8.38;6.22;;;;;;;10.16;69.81;94054.41;4986693;28;20045;-75
2022/12/17 16:33:39;;;;;;;9.63;5.28;;;;;;;10.13;70.19;94073.59;4982667;28;20369;-76
2022/12/17 16:36:06;;;;;;;6.60;4.80;;;;;;;10.01;71.26;94070.72;4986794;28;20404;-75
2022/12/17 16:38:32;;;;;;;21.35;16.85;;;;;;;9.94;70.89;94067.69;4981307;28;20705;-77
2022/12/17 16:41:01;;;;;;;19.92;14.23;;;;;;;9.79;70.53;94038.84;4994909;28;20518;-75
2022/12/17 16:43:31;;;;;;;10.82;7.95;;;;;;;9.82;71.49;94065.59;4981755;28;20061;-76
2022/12/17 16:45:56;;;;;;;7.78;3.80;;;;;;;9.83;71.42;94055.75;4987507;28;20496;-77
2022/12/17 16:48:23;;;;;;;3.80;3.35;;;;;;;9.89;71.38;94065.16;4992317;28;20037;-76
2022/12/17 16:50:49;;;;;;;11.32;7.68;;;;;;;9.84;70.96;94071.38;4990538;28;20604;-77
2022/12/17 16:53:14;;;;;;;9.93;5.03;;;;;;;9.94;70.70;94073.00;4987289;28;20046;-75
2022/12/17 16:55:49;;;;;;;14.52;7.97;;;;;;;10.03;70.27;94081.81;5004935;28;20065;-76
2022/12/17 16:58:16;;;;;;;19.10;11.27;;;;;;;10.01;70.44;94084.03;4990056;28;20547;-75
2022/12/17 17:00:41;;;;;;;18.02;9.55;;;;;;;10.06;70.16;94086.56;4982948;28;20568;-75
2022/12/17 17:03:07;;;;;;;30.95;15.95;;;;;;;10.06;69.78;94096.41;4979447;28;20330;-76
2022/12/17 17:05:35;;;;;;;11.20;6.07;;;;;;;10.10;70.47;94092.81;4984786;28;20037;-76
2022/12/17 17:08:01;;;;;;;9.75;5.68;;;;;;;9.94;70.44;94080.19;4979143;28;20046;-75
2022/12/17 17:10:27;;;;;;;37.75;25.70;;;;;;;10.02;70.51;94106.84;5004154;28;20040;-74
2022/12/17 17:12:54;;;;;;;45.75;30.52;;;;;;;10.05;69.94;94100.13;4986083;28;20117;-76
2022/12/17 17:15:21;;;;;;;40.42;29.20;;;;;;;10.03;69.79;94103.09;4982841;28;20855;-74
2022/12/17 17:17:46;;;;;;;30.38;22.00;;;;;;;9.63;70.49;94067.66;4981856;28;20030;-73
2022/12/17 17:20:12;;;;;;;20.02;13.30;;;;;;;9.82;70.77;94096.69;4987073;28;20034;-75
2022/12/17 17:22:37;;;;;;;7.80;5.40;;;;;;;9.81;70.55;94101.22;4987031;28;20057;-74
2022/12/17 17:25:03;;;;;;;6.80;3.88;;;;;;;9.80;70.79;94098.84;4983165;28;20101;-75
2022/12/17 17:27:29;;;;;;;15.20;9.00;;;;;;;9.86;69.83;94097.66;4984226;28;20399;-74
2022/12/17 17:29:55;;;;;;;5.57;3.40;;;;;;;9.74;70.72;94105.34;4978563;28;20190;-74
2022/12/17 17:32:21;;;;;;;4.78;3.40;;;;;;;9.81;70.76;94122.47;4985279;28;20072;-74
2022/12/17 17:34:46;;;;;;;7.18;6.20;;;;;;;9.66;70.69;94109.53;4985940;28;20029;-74
2022/12/17 17:37:12;;;;;;;11.30;9.32;;;;;;;9.79;70.17;94129.94;4991031;28;20115;-76
2022/12/17 17:39:38;;;;;;;16.42;11.27;;;;;;;9.84;70.12;94132.47;4987162;28;20046;-74
2022/12/17 17:42:04;;;;;;;12.32;7.18;;;;;;;9.76;70.75;94140.38;4991580;28;20528;-75
2022/12/17 17:44:29;;;;;;;21.52;16.00;;;;;;;9.71;70.51;94121.91;4983594;28;20038;-76
2022/12/17 17:46:55;;;;;;;16.65;9.25;;;;;;;9.77;70.69;94145.41;4986579;28;20569;-74
2022/12/17 17:49:21;;;;;;;15.43;11.60;;;;;;;9.66;71.18;94136.09;4989673;28;20033;-74
2022/12/17 17:51:46;;;;;;;19.67;13.25;;;;;;;9.70;70.88;94139.72;4990327;28;20069;-74
2022/12/17 17:54:12;;;;;;;33.85;24.25;;;;;;;9.56;70.73;94127.53;4987994;28;20034;-75
2022/12/17 17:56:39;;;;;;;41.10;27.08;;;;;;;9.66;71.12;94145.91;4986520;28;20376;-76
2022/12/17 17:59:13;;;;;;;33.33;19.80;;;;;;;9.70;70.88;94152.19;4991744;28;20044;-74
2022/12/17 18:01:43;;;;;;;29.63;20.00;;;;;;;9.80;69.43;94154.63;4991398;28;20057;-74
2022/12/17 18:04:12;;;;;;;20.65;13.02;;;;;;;9.63;70.26;94149.19;4992711;28;20042;-75
2022/12/17 18:06:39;;;;;;;29.63;21.30;;;;;;;9.56;70.43;94152.22;4990652;28;20042;-72
2022/12/17 18:09:06;;;;;;;23.20;16.17;;;;;;;9.58;70.65;94158.03;4988396;28;20208;-74
2022/12/17 18:11:32;;;;;;;14.35;9.35;;;;;;;9.64;70.55;94169.31;4992240;28;20045;-73
2022/12/17 18:13:59;;;;;;;17.98;11.55;;;;;;;9.69;70.11;94177.19;4986667;28;20619;-74
2022/12/17 18:16:29;;;;;;;12.20;10.25;;;;;;;9.66;70.18;94183.09;4990473;28;20560;-74
2022/12/17 18:18:56;;;;;;;11.32;9.73;;;;;;;9.61;69.79;94177.88;4989459;28;20499;-76
2022/12/17 18:21:23;;;;;;;10.48;8.05;;;;;;;9.75;69.38;94181.31;5007254;28;20060;-75
2022/12/17 18:23:54;;;;;;;8.07;5.90;;;;;;;9.71;69.29;94188.31;4991093;28;20025;-75
2022/12/17 18:26:21;;;;;;;10.93;8.35;;;;;;;9.85;68.37;94202.34;4992623;28;20136;-75
2022/12/17 18:28:47;;;;;;;11.32;7.70;;;;;;;9.58;69.16;94213.03;4989690;28;20034;-75
2022/12/17 18:31:17;;;;;;;14.27;10.20;;;;;;;9.36;71.23;94219.00;4990733;28;20050;-76
2022/12/17 18:33:46;;;;;;;16.55;13.55;;;;;;;9.58;70.16;94219.13;4990218;28;20433;-75
2022/12/17 18:36:20;;;;;;;21.10;17.13;;;;;;;9.59;69.37;94201.28;5005957;28;20029;-75
2022/12/17 18:38:46;;;;;;;59.38;40.83;;;;;;;9.69;69.33;94230.28;4990728;28;20484;-75
2022/12/17 18:44:02;;;;;;;35.33;26.55;;;;;;;9.80;69.03;94221.84;4982854;28;20233;-74
2022/12/17 18:46:28;;;;;;;40.45;28.42;;;;;;;9.70;69.98;94222.03;4989444;28;20048;-75
2022/12/17 18:49:01;;;;;;;35.17;25.98;;;;;;;9.67;69.93;94227.16;4989689;28;20042;-75
2022/12/17 18:51:27;;;;;;;35.60;27.58;;;;;;;9.64;70.08;94241.81;4990829;28;20382;-75
2022/12/17 18:53:58;;;;;;;35.72;23.38;;;;;;;9.77;69.45;94248.22;4991543;28;20053;-75
2022/12/17 18:56:24;;;;;;;33.10;22.45;;;;;;;9.64;69.65;94251.66;4990773;28;20037;-76
2022/12/17 18:58:54;;;;;;;28.58;21.60;;;;;;;9.58;70.00;94253.63;4991842;28;20054;-75
2022/12/17 19:01:23;;;;;;;30.13;21.42;;;;;;;9.39;70.15;94248.41;4989270;28;20102;-74
2022/12/17 19:03:48;;;;;;;23.08;18.90;;;;;;;9.46;69.72;94253.31;4991105;28;20447;-74
2022/12/17 19:06:14;;;;;;;31.27;20.58;;;;;;;9.59;70.35;94263.16;4987181;28;20051;-76
2022/12/17 19:08:40;;;;;;;29.25;19.27;;;;;;;9.34;70.08;94251.16;4992547;28;20030;-74
2022/12/17 19:11:07;;;;;;;44.17;28.20;;;;;;;9.60;69.38;94258.63;4990080;28;20493;-76
2022/12/17 19:13:33;;;;;;;73.93;38.67;;;;;;;9.55;69.79;94261.38;4984802;28;20125;-76
2022/12/17 19:16:10;;;;;;;40.25;23.95;;;;;;;9.45;70.90;94278.31;4991844;28;20184;-74
2022/12/17 19:18:36;;;;;;;41.17;25.00;;;;;;;9.43;70.30;94270.66;4990837;28;20054;-76
2022/12/17 19:21:01;;;;;;;37.47;24.60;;;;;;;9.49;70.38;94281.19;4981248;28;20029;-75
2022/12/17 19:23:28;;;;;;;40.63;25.23;;;;;;;9.27;70.03;94289.78;4983355;28;20058;-76
2022/12/17 19:25:55;;;;;;;32.60;22.05;;;;;;;9.33;70.00;94294.72;4984061;28;20038;-76
2022/12/17 19:28:21;;;;;;;39.53;23.27;;;;;;;9.15;70.14;94278.84;4988056;28;20042;-76
2022/12/17 19:30:46;;;;;;;28.92;20.13;;;;;;;9.20;70.54;94295.47;4988508;28;20049;-74
2022/12/17 19:33:11;;;;;;;28.08;19.23;;;;;;;9.23;70.13;94297.56;4988441;28;20161;-76
2022/12/17 19:35:37;;;;;;;24.20;18.25;;;;;;;9.33;69.28;94302.69;4981248;28;20045;-75
2022/12/17 19:38:02;;;;;;;31.73;21.88;;;;;;;9.39;69.24;94296.19;4984744;28;20034;-74
2022/12/17 19:40:27;;;;;;;59.47;41.88;;;;;;;9.41;69.69;94303.88;4987756;28;20068;-74
2022/12/17 19:42:56;;;;;;;38.03;27.83;;;;;;;9.33;69.26;94297.38;4986040;28;20050;-76
2022/12/17 19:45:22;;;;;;;46.63;35.58;;;;;;;9.40;68.49;94291.66;4983535;28;20551;-74
2022/12/17 19:47:48;;;;;;;47.38;32.70;;;;;;;9.22;69.18;94293.31;4985346;28;20180;-74
2022/12/17 19:50:13;;;;;;;32.53;23.10;;;;;;;9.25;68.61;94294.59;4982401;28;20038;-75
2022/12/17 19:52:39;;;;;;;30.90;22.17;;;;;;;9.35;68.39;94311.13;4986482;28;20069;-77
2022/12/17 19:55:05;;;;;;;28.35;21.73;;;;;;;9.14;68.49;94309.94;4986258;28;20554;-74
2022/12/17 19:57:33;;;;;;;34.90;24.67;;;;;;;8.92;70.89;94315.03;4985700;28;20530;-75
2022/12/17 19:59:58;;;;;;;31.45;20.77;;;;;;;8.95;71.11;94328.50;4986619;28;20033;-75
2022/12/17 20:02:24;;;;;;;31.95;23.70;;;;;;;9.00;70.73;94325.75;4985210;28;20636;-75
2022/12/17 20:04:50;;;;;;;33.33;23.15;;;;;;;9.04;71.03;94315.38;4983311;28;20038;-75
2022/12/17 20:07:15;;;;;;;37.85;26.88;;;;;;;9.22;70.23;94327.81;4985627;28;20571;-74
2022/12/17 20:09:43;;;;;;;43.58;28.52;;;;;;;9.29;70.26;94328.22;4985516;28;20038;-75
2022/12/17 20:12:09;;;;;;;51.65;36.28;;;;;;;9.23;70.71;94328.63;4985337;28;20037;-77
2022/12/17 20:14:34;;;;;;;37.92;28.10;;;;;;;9.22;71.08;94330.47;4984585;28;20325;-76
2022/12/17 20:17:00;;;;;;;43.25;31.65;;;;;;;9.05;71.97;94342.69;4988123;28;20618;-74
2022/12/17 20:19:31;;;;;;;34.38;26.80;;;;;;;8.89;72.87;94334.19;4987099;28;20844;-74
2022/12/17 20:22:01;;;;;;;38.70;26.60;;;;;;;8.95;72.93;94341.00;4988633;28;20046;-75
2022/12/17 20:24:27;;;;;;;38.30;27.58;;;;;;;8.92;72.90;94355.59;4988103;28;20115;-75
2022/12/17 20:26:53;;;;;;;32.10;25.02;;;;;;;9.03;72.75;94356.25;4986439;28;20034;-77
2022/12/17 20:29:21;;;;;;;30.33;23.13;;;;;;;8.84;73.69;94358.94;4990313;28;20048;-75
2022/12/17 20:31:47;;;;;;;31.80;23.08;;;;;;;8.93;72.86;94357.19;4988118;28;20466;-76
2022/12/17 20:34:14;;;;;;;32.00;23.13;;;;;;;8.96;72.73;94359.25;4989270;28;20092;-75
2022/12/17 20:36:40;;;;;;;38.75;27.13;;;;;;;9.04;72.57;94368.44;4984338;28;20049;-76
2022/12/17 20:39:07;;;;;;;48.67;30.48;;;;;;;9.00;72.82;94373.50;4982283;28;20034;-77
2022/12/17 20:41:35;;;;;;;30.08;22.73;;;;;;;9.01;73.01;94376.97;4980245;28;20041;-76
2022/12/17 20:44:05;;;;;;;28.88;22.00;;;;;;;9.07;72.74;94381.13;4981975;28;20034;-76
2022/12/17 20:46:31;;;;;;;25.27;18.55;;;;;;;9.06;72.64;94371.56;4981260;28;20049;-75
2022/12/17 20:48:58;;;;;;;21.83;15.95;;;;;;;9.02;73.10;94381.19;4984452;28;20493;-76
2022/12/17 20:51:25;;;;;;;32.60;25.08;;;;;;;9.04;72.50;94379.06;4987397;28;20026;-75
2022/12/17 20:53:52;;;;;;;32.60;21.58;;;;;;;8.93;73.59;94398.84;4983461;28;20033;-75
2022/12/17 20:56:20;;;;;;;31.08;25.05;;;;;;;8.91;73.46;94387.72;4984720;28;20850;-74
2022/12/17 20:58:46;;;;;;;28.55;21.98;;;;;;;8.85;73.20;94376.41;4981570;28;20034;-73
2022/12/17 21:01:17;;;;;;;31.20;21.40;;;;;;;8.89;73.68;94397.84;4984403;28;20100;-75
2022/12/17 21:03:43;;;;;;;21.13;15.07;;;;;;;8.77;73.50;94386.88;4988039;28;20042;-75
2022/12/17 21:06:11;;;;;;;24.80;19.92;;;;;;;8.91;73.85;94411.59;4986124;28;20444;-76
2022/12/17 21:08:38;;;;;;;20.75;16.42;;;;;;;8.81;73.73;94411.75;4988590;28;20030;-75
2022/12/17 21:11:04;;;;;;;22.33;17.10;;;;;;;8.73;73.88;94409.75;4987735;28;20038;-73
2022/12/17 21:13:30;;;;;;;22.80;16.80;;;;;;;8.92;73.15;94415.84;4988136;28;20507;-74
2022/12/17 21:15:58;;;;;;;23.63;18.10;;;;;;;8.91;73.12;94416.91;4992851;28;20145;-75
2022/12/17 21:18:24;;;;;;;33.35;27.73;;;;;;;8.80;73.38;94413.63;4995027;28;20507;-75
2022/12/17 21:21:02;;;;;;;27.40;22.40;;;;;;;8.82;73.46;94423.94;4991299;28;20396;-74
2022/12/17 21:23:28;;;;;;;35.88;26.00;;;;;;;8.71;73.47;94425.13;4991542;28;20076;-73
2022/12/17 21:26:03;;;;;;;29.23;22.00;;;;;;;8.84;72.85;94432.41;4990401;28;20443;-74
2022/12/17 21:28:30;;;;;;;29.77;23.73;;;;;;;8.68;72.97;94417.75;4985375;28;20546;-75
2022/12/17 21:30:56;;;;;;;23.50;17.23;;;;;;;8.59;73.72;94431.66;4983327;28;20279;-76
2022/12/17 21:33:21;;;;;;;16.92;15.02;;;;;;;8.35;74.12;94415.00;4986632;28;20084;-73
2022/12/17 21:35:47;;;;;;;28.33;19.40;;;;;;;8.51;74.20;94439.47;4990420;28;20932;-73
2022/12/17 21:38:13;;;;;;;23.75;17.80;;;;;;;8.51;73.65;94429.63;4985013;28;20730;-75
2022/12/17 21:40:39;;;;;;;19.63;14.98;;;;;;;8.46;73.80;94440.31;4987846;28;20080;-75
2022/12/17 21:43:05;;;;;;;19.38;14.75;;;;;;;8.36;74.31;94445.75;4991386;28;20053;-73
2022/12/17 21:45:41;;;;;;;15.27;11.52;;;;;;;8.31;73.60;94434.41;4993521;28;20405;-72
2022/12/17 21:48:09;;;;;;;15.25;12.80;;;;;;;8.53;73.20;94453.22;4990160;28;20030;-76
2022/12/17 21:50:39;;;;;;;12.60;9.65;;;;;;;8.46;72.51;94450.91;5003717;28;20029;-73
2022/12/17 21:53:05;;;;;;;13.00;11.27;;;;;;;8.41;72.74;94456.25;4989326;28;20558;-73
2022/12/17 21:55:30;;;;;;;13.30;9.70;;;;;;;8.25;72.76;94444.28;4982725;28;20046;-73
2022/12/17 21:57:59;;;;;;;13.18;9.23;;;;;;;8.27;72.77;94465.97;4984055;28;20278;-77
2022/12/17 22:00:24;;;;;;;9.65;8.05;;;;;;;8.19;72.59;94460.50;4986083;28;20050;-75
2022/12/17 22:02:49;;;;;;;10.98;8.95;;;;;;;8.11;72.79;94448.69;4984863;28;20094;-74
2022/12/17 22:05:15;;;;;;;11.20;8.75;;;;;;;8.04;73.03;94454.31;4987170;28;20125;-74
2022/12/17 22:07:41;;;;;;;11.05;9.10;;;;;;;8.05;73.37;94460.41;4984469;28;20037;-76
2022/12/17 22:10:07;;;;;;;8.95;7.97;;;;;;;7.95;73.55;94468.44;4985660;28;20520;-74
2022/12/17 22:15:16;;;;;;;11.50;8.55;;;;;;;7.84;73.60;94456.38;4989385;28;20172;-74
2022/12/17 22:17:42;;;;;;;11.35;9.30;;;;;;;7.90;74.36;94460.56;4987412;28;20401;-76
2022/12/17 22:20:08;;;;;;;9.30;8.05;;;;;;;7.68;74.39;94468.91;4989942;28;20239;-76
2022/12/17 22:22:33;;;;;;;9.77;8.70;;;;;;;7.71;74.44;94468.38;4991255;28;20081;-72
2022/12/17 22:24:59;;;;;;;10.93;9.77;;;;;;;7.82;74.50;94469.13;4993655;28;20129;-74
2022/12/17 22:27:24;;;;;;;10.20;8.27;;;;;;;7.97;73.18;94476.91;4991293;28;20033;-74
2022/12/17 22:35:17;;;;;;;8.30;6.55;;;;;;;8.07;72.12;94471.53;4989232;28;20036;-74
2022/12/17 22:37:43;;;;;;;6.82;5.82;;;;;;;8.02;71.82;94468.91;4989315;28;20046;-74
2022/12/17 22:40:09;;;;;;;5.15;4.65;;;;;;;8.06;71.67;94472.59;4989346;28;20042;-75
2022/12/17 22:45:18;;;;;;;10.25;4.97;;;;;;;7.75;71.73;94468.63;4989088;28;20080;-73
2022/12/17 22:47:44;;;;;;;6.18;5.22;;;;;;;7.73;72.03;94475.00;4991659;28;20033;-74
2022/12/17 22:50:10;;;;;;;5.22;4.20;;;;;;;7.86;71.12;94484.16;4991429;28;20544;-75
2022/12/17 22:52:36;;;;;;;5.80;4.25;;;;;;;7.62;71.87;94491.25;4992855;28;20523;-74
2022/12/17 22:55:01;;;;;;;4.72;3.97;;;;;;;7.64;71.83;94495.16;4992099;28;20034;-74
2022/12/17 22:57:27;;;;;;;5.03;4.20;;;;;;;7.71;71.58;94500.94;4991003;28;20050;-76
2022/12/17 22:59:52;;;;;;;4.28;3.88;;;;;;;7.66;71.11;94502.84;4992205;28;20645;-76
2022/12/17 23:02:18;;;;;;;3.67;3.35;;;;;;;7.43;71.55;94492.97;4992208;28;20038;-74
2022/12/17 23:04:43;;;;;;;5.20;4.25;;;;;;;7.45;71.36;94496.91;4990863;28;20560;-75
2022/12/17 23:07:08;;;;;;;4.82;3.70;;;;;;;7.41;71.41;94490.59;4993657;28;20038;-74
2022/12/17 23:09:34;;;;;;;9.32;6.65;;;;;;;7.40;71.95;94509.38;4990388;28;20034;-76
2022/12/17 23:14:43;;;;;;;6.40;4.68;;;;;;;7.41;71.01;94500.41;4971366;28;20093;-74
2022/12/17 23:17:08;;;;;;;4.68;4.13;;;;;;;7.47;71.24;94515.97;4987982;28;20153;-74
2022/12/17 23:19:34;;;;;;;5.20;4.38;;;;;;;7.60;70.92;94523.28;4991255;28;20069;-75
2022/12/17 23:21:59;;;;;;;5.78;4.43;;;;;;;7.61;70.61;94516.13;4991793;28;20515;-74
2022/12/17 23:24:25;;;;;;;5.40;4.25;;;;;;;7.66;69.91;94516.09;4990876;28;20129;-76
2022/12/17 23:26:50;;;;;;;5.32;4.82;;;;;;;7.76;69.95;94520.53;4992075;28;20064;-75
2022/12/17 23:29:15;;;;;;;5.88;5.13;;;;;;;7.73;69.83;94531.69;4990313;28;20048;-73
2022/12/17 23:31:41;;;;;;;8.93;5.25;;;;;;;7.51;69.73;94537.38;4992330;28;20725;-74
2022/12/17 23:34:07;;;;;;;5.38;3.90;;;;;;;7.35;70.63;94534.03;4989785;28;20038;-74
2022/12/17 23:36:32;;;;;;;5.70;3.65;;;;;;;7.09;70.47;94529.97;4992291;28;20108;-74
2022/12/17 23:38:58;;;;;;;4.30;3.65;;;;;;;7.01;70.67;94536.63;4984649;28;20531;-74
2022/12/17 23:41:26;;;;;;;5.75;4.60;;;;;;;6.98;71.24;94560.97;4990909;28;20543;-74
2022/12/17 23:43:53;;;;;;;6.57;5.35;;;;;;;6.94;71.39;94559.94;4991979;28;20042;-76
2022/12/17 23:46:19;;;;;;;5.82;5.22;;;;;;;6.93;71.71;94566.28;4990513;28;20038;-76
2022/12/17 23:48:46;;;;;;;5.00;4.45;;;;;;;6.90;71.83;94571.34;4989603;28;20042;-77
2022/12/17 23:51:14;;;;;;;5.78;4.07;;;;;;;6.96;71.03;94554.38;4995360;28;20084;-74
2022/12/17 23:53:40;;;;;;;3.53;3.15;;;;;;;7.00;70.04;94568.63;4996651;28;20121;-72
2022/12/17 23:56:17;;;;;;;4.97;3.75;;;;;;;7.03;69.59;94563.59;4991394;28;20153;-74
2022/12/17 23:58:44;;;;;;;5.70;4.30;;;;;;;6.98;70.31;94570.75;4991122;28;20129;-74
